sensor_id;sensor_type;location;lat;lon;timestamp;temperature;humidity
7496;DHT22;3789;47.064;15.482;2022-08-01T00:01:26;19.80;99.90
7496;DHT22;3789;47.064;15.482;2022-08-01T00:03:53;19.80;99.90
7496;DHT22;3789;47.064;15.482;2022-08-01T00:06:24;19.70;99.90
7496;DHT22;3789;47.064;15.482;2022-08-01T00:08:59;19.60;99.90
7496;DHT22;3789;47.064;15.482;2022-08-01T00:11:28;19.50;99.90
7496;DHT22;3789;47.064;15.482;2022-08-01T00:14:04;19.50;99.90
7496;DHT22;3789;47.064;15.482;2022-08-01T00:16:41;19.40;99.90
7496;DHT22;3789;47.064;15.482;2022-08-01T00:19:10;19.30;99.90
7496;DHT22;3789;47.064;15.482;2022-08-01T00:21:41;19.20;99.90
7496;DHT22;3789;47.064;15.482;2022-08-01T00:24:18;19.20;99.90
7496;DHT22;3789;47.064;15.482;2022-08-01T00:26:47;19.20;99.90
7496;DHT22;3789;47.064;15.482;2022-08-01T00:29:17;19.10;99.90
7496;DHT22;3789;47.064;15.482;2022-08-01T00:32:06;19.10;99.90
7496;DHT22;3789;47.064;15.482;2022-08-01T00:34:40;19.10;99.90
7496;DHT22;3789;47.064;15.482;2022-08-01T00:37:10;19.10;99.90
7496;DHT22;3789;47.064;15.482;2022-08-01T00:39:43;19.10;99.90
7496;DHT22;3789;47.064;15.482;2022-08-01T00:42:12;19.20;99.90
7496;DHT22;3789;47.064;15.482;2022-08-01T00:44:42;19.20;99.90
7496;DHT22;3789;47.064;15.482;2022-08-01T00:47:12;19.20;99.90
7496;DHT22;3789;47.064;15.482;2022-08-01T00:49:42;19.10;99.90
7496;DHT22;3789;47.064;15.482;2022-08-01T00:52:12;19.00;99.90
7496;DHT22;3789;47.064;15.482;2022-08-01T00:54:40;19.00;99.90
7496;DHT22;3789;47.064;15.482;2022-08-01T00:57:10;19.00;99.90
7496;DHT22;3789;47.064;15.482;2022-08-01T01:00:11;19.00;99.90
7496;DHT22;3789;47.064;15.482;2022-08-01T01:02:45;19.00;99.90
7496;DHT22;3789;47.064;15.482;2022-08-01T01:05:17;19.00;99.90
7496;DHT22;3789;47.064;15.482;2022-08-01T01:08:08;19.10;99.90
7496;DHT22;3789;47.064;15.482;2022-08-01T01:11:11;19.10;99.90
7496;DHT22;3789;47.064;15.482;2022-08-01T01:13:46;19.10;99.90
7496;DHT22;3789;47.064;15.482;2022-08-01T01:16:19;19.10;99.90
7496;DHT22;3789;47.064;15.482;2022-08-01T01:18:55;19.10;99.90
7496;DHT22;3789;47.064;15.482;2022-08-01T01:22:00;19.10;99.90
7496;DHT22;3789;47.064;15.482;2022-08-01T01:28:02;19.00;99.90
7496;DHT22;3789;47.064;15.482;2022-08-01T01:30:33;18.90;99.90
7496;DHT22;3789;47.064;15.482;2022-08-01T01:33:05;18.80;99.90
7496;DHT22;3789;47.064;15.482;2022-08-01T01:35:38;18.60;99.90
7496;DHT22;3789;47.064;15.482;2022-08-01T01:38:17;18.60;99.90
7496;DHT22;3789;47.064;15.482;2022-08-01T01:40:47;18.60;99.90
7496;DHT22;3789;47.064;15.482;2022-08-01T01:43:17;18.60;99.90
7496;DHT22;3789;47.064;15.482;2022-08-01T01:45:45;18.60;99.90
7496;DHT22;3789;47.064;15.482;2022-08-01T01:48:19;18.60;99.90
7496;DHT22;3789;47.064;15.482;2022-08-01T01:50:49;18.60;99.90
7496;DHT22;3789;47.064;15.482;2022-08-01T01:53:21;18.50;99.90
7496;DHT22;3789;47.064;15.482;2022-08-01T01:55:52;18.50;99.90
7496;DHT22;3789;47.064;15.482;2022-08-01T01:58:23;18.60;99.90
7496;DHT22;3789;47.064;15.482;2022-08-01T02:00:52;18.60;99.90
7496;DHT22;3789;47.064;15.482;2022-08-01T02:03:20;18.60;99.90
7496;DHT22;3789;47.064;15.482;2022-08-01T02:05:49;18.60;99.90
7496;DHT22;3789;47.064;15.482;2022-08-01T02:08:18;18.60;99.90
7496;DHT22;3789;47.064;15.482;2022-08-01T02:10:46;18.60;99.90
7496;DHT22;3789;47.064;15.482;2022-08-01T02:13:34;18.60;99.90
7496;DHT22;3789;47.064;15.482;2022-08-01T02:16:04;18.60;99.90
7496;DHT22;3789;47.064;15.482;2022-08-01T02:18:33;18.60;99.90
7496;DHT22;3789;47.064;15.482;2022-08-01T02:21:00;18.60;99.90
7496;DHT22;3789;47.064;15.482;2022-08-01T02:23:32;18.60;99.90
7496;DHT22;3789;47.064;15.482;2022-08-01T02:26:02;18.60;99.90
7496;DHT22;3789;47.064;15.482;2022-08-01T02:28:43;18.60;99.90
7496;DHT22;3789;47.064;15.482;2022-08-01T02:31:14;18.60;99.90
7496;DHT22;3789;47.064;15.482;2022-08-01T02:33:46;18.60;99.90
7496;DHT22;3789;47.064;15.482;2022-08-01T02:36:16;18.60;99.90
7496;DHT22;3789;47.064;15.482;2022-08-01T02:38:59;18.50;99.90
7496;DHT22;3789;47.064;15.482;2022-08-01T02:41:27;18.40;99.90
7496;DHT22;3789;47.064;15.482;2022-08-01T02:43:59;18.50;99.90
7496;DHT22;3789;47.064;15.482;2022-08-01T02:46:37;18.50;99.90
7496;DHT22;3789;47.064;15.482;2022-08-01T02:49:07;18.40;99.90
7496;DHT22;3789;47.064;15.482;2022-08-01T02:51:36;18.40;99.90
7496;DHT22;3789;47.064;15.482;2022-08-01T02:54:05;18.40;99.90
7496;DHT22;3789;47.064;15.482;2022-08-01T02:56:34;18.50;99.90
7496;DHT22;3789;47.064;15.482;2022-08-01T02:59:08;18.50;99.90
7496;DHT22;3789;47.064;15.482;2022-08-01T03:01:40;18.30;99.90
7496;DHT22;3789;47.064;15.482;2022-08-01T03:04:09;17.90;99.90
7496;DHT22;3789;47.064;15.482;2022-08-01T03:06:38;17.70;99.90
7496;DHT22;3789;47.064;15.482;2022-08-01T03:09:07;17.80;99.90
7496;DHT22;3789;47.064;15.482;2022-08-01T03:11:37;17.90;99.90
7496;DHT22;3789;47.064;15.482;2022-08-01T03:14:07;18.00;99.90
7496;DHT22;3789;47.064;15.482;2022-08-01T03:16:38;18.00;99.90
7496;DHT22;3789;47.064;15.482;2022-08-01T03:19:08;18.20;99.90
7496;DHT22;3789;47.064;15.482;2022-08-01T03:21:36;18.30;99.90
7496;DHT22;3789;47.064;15.482;2022-08-01T03:24:06;18.20;99.90
7496;DHT22;3789;47.064;15.482;2022-08-01T03:26:36;18.10;99.90
7496;DHT22;3789;47.064;15.482;2022-08-01T03:29:17;18.10;99.90
7496;DHT22;3789;47.064;15.482;2022-08-01T03:31:47;18.10;99.90
7496;DHT22;3789;47.064;15.482;2022-08-01T03:34:15;18.20;99.90
7496;DHT22;3789;47.064;15.482;2022-08-01T03:36:55;18.20;99.90
7496;DHT22;3789;47.064;15.482;2022-08-01T03:39:30;18.30;99.90
7496;DHT22;3789;47.064;15.482;2022-08-01T03:42:16;18.30;99.90
7496;DHT22;3789;47.064;15.482;2022-08-01T03:44:53;18.20;99.90
7496;DHT22;3789;47.064;15.482;2022-08-01T03:47:24;17.70;99.90
7496;DHT22;3789;47.064;15.482;2022-08-01T03:49:54;17.40;99.90
7496;DHT22;3789;47.064;15.482;2022-08-01T03:52:25;17.20;99.90
7496;DHT22;3789;47.064;15.482;2022-08-01T03:57:23;17.30;99.90
7496;DHT22;3789;47.064;15.482;2022-08-01T04:00:05;17.30;99.90
7496;DHT22;3789;47.064;15.482;2022-08-01T04:02:36;17.50;99.90
7496;DHT22;3789;47.064;15.482;2022-08-01T04:05:04;17.60;99.90
7496;DHT22;3789;47.064;15.482;2022-08-01T04:07:32;17.70;99.90
7496;DHT22;3789;47.064;15.482;2022-08-01T04:10:03;17.80;99.90
7496;DHT22;3789;47.064;15.482;2022-08-01T04:12:31;17.80;99.90
7496;DHT22;3789;47.064;15.482;2022-08-01T04:14:59;17.70;99.90
7496;DHT22;3789;47.064;15.482;2022-08-01T04:17:26;17.50;99.90
7496;DHT22;3789;47.064;15.482;2022-08-01T04:19:53;17.40;99.90
7496;DHT22;3789;47.064;15.482;2022-08-01T04:22:20;17.60;99.90
7496;DHT22;3789;47.064;15.482;2022-08-01T04:24:52;17.70;99.90
7496;DHT22;3789;47.064;15.482;2022-08-01T04:27:32;17.80;99.90
7496;DHT22;3789;47.064;15.482;2022-08-01T04:30:27;18.00;99.90
7496;DHT22;3789;47.064;15.482;2022-08-01T04:32:59;18.10;99.90
7496;DHT22;3789;47.064;15.482;2022-08-01T04:35:28;18.10;99.90
7496;DHT22;3789;47.064;15.482;2022-08-01T04:38:22;18.10;99.90
7496;DHT22;3789;47.064;15.482;2022-08-01T04:40:54;18.20;99.90
7496;DHT22;3789;47.064;15.482;2022-08-01T04:43:23;18.40;99.90
7496;DHT22;3789;47.064;15.482;2022-08-01T04:45:51;18.50;99.90
7496;DHT22;3789;47.064;15.482;2022-08-01T04:48:19;18.60;99.90
7496;DHT22;3789;47.064;15.482;2022-08-01T04:50:49;18.60;99.90
7496;DHT22;3789;47.064;15.482;2022-08-01T04:53:19;18.50;99.90
7496;DHT22;3789;47.064;15.482;2022-08-01T04:55:48;18.50;99.90
7496;DHT22;3789;47.064;15.482;2022-08-01T04:58:16;18.70;99.90
7496;DHT22;3789;47.064;15.482;2022-08-01T05:00:47;18.80;99.90
7496;DHT22;3789;47.064;15.482;2022-08-01T05:03:15;18.90;99.90
7496;DHT22;3789;47.064;15.482;2022-08-01T05:05:42;19.00;99.90
7496;DHT22;3789;47.064;15.482;2022-08-01T05:08:09;18.80;99.90
7496;DHT22;3789;47.064;15.482;2022-08-01T05:10:37;18.80;99.90
7496;DHT22;3789;47.064;15.482;2022-08-01T05:13:04;19.00;99.90
7496;DHT22;3789;47.064;15.482;2022-08-01T05:15:35;19.20;99.90
7496;DHT22;3789;47.064;15.482;2022-08-01T05:18:03;19.30;99.90
7496;DHT22;3789;47.064;15.482;2022-08-01T05:20:33;19.50;99.90
7496;DHT22;3789;47.064;15.482;2022-08-01T05:23:00;19.80;99.90
7496;DHT22;3789;47.064;15.482;2022-08-01T05:25:27;20.10;99.90
7496;DHT22;3789;47.064;15.482;2022-08-01T05:28:15;20.50;99.90
7496;DHT22;3789;47.064;15.482;2022-08-01T05:30:45;21.10;99.90
7496;DHT22;3789;47.064;15.482;2022-08-01T05:33:12;21.40;99.90
7496;DHT22;3789;47.064;15.482;2022-08-01T05:38:15;21.50;99.90
7496;DHT22;3789;47.064;15.482;2022-08-01T05:40:42;21.40;99.90
7496;DHT22;3789;47.064;15.482;2022-08-01T05:43:09;21.40;99.90
7496;DHT22;3789;47.064;15.482;2022-08-01T05:45:36;21.30;99.90
7496;DHT22;3789;47.064;15.482;2022-08-01T05:48:04;21.30;99.90
7496;DHT22;3789;47.064;15.482;2022-08-01T05:50:32;21.20;99.90
7496;DHT22;3789;47.064;15.482;2022-08-01T05:53:00;21.20;99.90
7496;DHT22;3789;47.064;15.482;2022-08-01T05:55:27;21.20;99.90
7496;DHT22;3789;47.064;15.482;2022-08-01T05:57:54;21.10;99.90
7496;DHT22;3789;47.064;15.482;2022-08-01T06:00:22;21.00;99.90
7496;DHT22;3789;47.064;15.482;2022-08-01T06:02:49;20.90;99.90
7496;DHT22;3789;47.064;15.482;2022-08-01T06:05:16;20.90;99.90
7496;DHT22;3789;47.064;15.482;2022-08-01T06:07:44;20.90;99.90
7496;DHT22;3789;47.064;15.482;2022-08-01T06:10:11;20.90;99.90
7496;DHT22;3789;47.064;15.482;2022-08-01T06:12:38;20.90;99.90
7496;DHT22;3789;47.064;15.482;2022-08-01T06:15:06;20.90;99.90
7496;DHT22;3789;47.064;15.482;2022-08-01T06:17:34;20.90;99.90
7496;DHT22;3789;47.064;15.482;2022-08-01T06:20:01;20.40;99.90
7496;DHT22;3789;47.064;15.482;2022-08-01T06:22:28;20.20;99.90
7496;DHT22;3789;47.064;15.482;2022-08-01T06:24:57;20.30;99.90
7496;DHT22;3789;47.064;15.482;2022-08-01T06:27:24;20.30;99.90
7496;DHT22;3789;47.064;15.482;2022-08-01T06:29:54;20.50;99.90
7496;DHT22;3789;47.064;15.482;2022-08-01T06:32:22;20.70;99.90
7496;DHT22;3789;47.064;15.482;2022-08-01T06:34:54;20.90;99.90
7496;DHT22;3789;47.064;15.482;2022-08-01T06:37:22;20.90;99.90
7496;DHT22;3789;47.064;15.482;2022-08-01T06:39:50;21.10;99.90
7496;DHT22;3789;47.064;15.482;2022-08-01T06:42:17;21.30;99.90
7496;DHT22;3789;47.064;15.482;2022-08-01T06:44:45;21.30;99.90
7496;DHT22;3789;47.064;15.482;2022-08-01T06:47:12;21.20;99.90
7496;DHT22;3789;47.064;15.482;2022-08-01T06:49:48;21.10;99.90
7496;DHT22;3789;47.064;15.482;2022-08-01T06:52:16;21.00;99.90
7496;DHT22;3789;47.064;15.482;2022-08-01T06:54:43;21.10;99.90
7496;DHT22;3789;47.064;15.482;2022-08-01T06:57:10;21.00;99.90
7496;DHT22;3789;47.064;15.482;2022-08-01T06:59:38;20.90;99.90
7496;DHT22;3789;47.064;15.482;2022-08-01T07:02:05;20.90;99.90
7496;DHT22;3789;47.064;15.482;2022-08-01T07:04:34;20.90;99.90
7496;DHT22;3789;47.064;15.482;2022-08-01T07:09:29;20.50;99.90
7496;DHT22;3789;47.064;15.482;2022-08-01T07:11:56;20.50;99.90
7496;DHT22;3789;47.064;15.482;2022-08-01T07:14:24;20.40;99.90
7496;DHT22;3789;47.064;15.482;2022-08-01T07:16:51;20.30;99.90
7496;DHT22;3789;47.064;15.482;2022-08-01T07:19:18;20.30;99.90
7496;DHT22;3789;47.064;15.482;2022-08-01T07:21:45;20.50;99.90
7496;DHT22;3789;47.064;15.482;2022-08-01T07:24:17;20.70;99.90
7496;DHT22;3789;47.064;15.482;2022-08-01T07:26:48;20.80;99.90
7496;DHT22;3789;47.064;15.482;2022-08-01T07:29:24;21.00;99.90
7496;DHT22;3789;47.064;15.482;2022-08-01T07:31:53;21.30;99.90
7496;DHT22;3789;47.064;15.482;2022-08-01T07:34:21;21.50;99.90
7496;DHT22;3789;47.064;15.482;2022-08-01T07:36:48;21.60;99.90
7496;DHT22;3789;47.064;15.482;2022-08-01T07:39:16;21.70;99.90
7496;DHT22;3789;47.064;15.482;2022-08-01T07:41:43;21.70;99.90
7496;DHT22;3789;47.064;15.482;2022-08-01T07:44:30;21.90;99.90
7496;DHT22;3789;47.064;15.482;2022-08-01T07:46:57;22.30;99.90
7496;DHT22;3789;47.064;15.482;2022-08-01T07:49:24;22.80;99.90
7496;DHT22;3789;47.064;15.482;2022-08-01T07:51:52;23.00;99.90
7496;DHT22;3789;47.064;15.482;2022-08-01T07:54:31;23.40;99.90
7496;DHT22;3789;47.064;15.482;2022-08-01T07:57:01;24.30;99.90
7496;DHT22;3789;47.064;15.482;2022-08-01T07:59:28;24.80;99.90
7496;DHT22;3789;47.064;15.482;2022-08-01T08:01:55;25.20;99.90
7496;DHT22;3789;47.064;15.482;2022-08-01T08:04:23;25.20;99.90
7496;DHT22;3789;47.064;15.482;2022-08-01T08:06:50;25.20;99.90
7496;DHT22;3789;47.064;15.482;2022-08-01T08:09:17;25.30;99.90
7496;DHT22;3789;47.064;15.482;2022-08-01T08:11:45;25.70;99.90
7496;DHT22;3789;47.064;15.482;2022-08-01T08:14:15;25.50;99.90
7496;DHT22;3789;47.064;15.482;2022-08-01T08:16:43;25.60;99.90
7496;DHT22;3789;47.064;15.482;2022-08-01T08:19:11;25.70;99.90
7496;DHT22;3789;47.064;15.482;2022-08-01T08:21:38;25.70;99.90
7496;DHT22;3789;47.064;15.482;2022-08-01T08:24:07;25.60;99.90
7496;DHT22;3789;47.064;15.482;2022-08-01T08:26:59;25.70;99.90
7496;DHT22;3789;47.064;15.482;2022-08-01T08:29:29;25.70;99.90
7496;DHT22;3789;47.064;15.482;2022-08-01T08:31:59;25.70;99.90
7496;DHT22;3789;47.064;15.482;2022-08-01T08:34:28;25.60;99.90
7496;DHT22;3789;47.064;15.482;2022-08-01T08:36:56;25.60;99.90
7496;DHT22;3789;47.064;15.482;2022-08-01T08:39:25;25.60;99.90
7496;DHT22;3789;47.064;15.482;2022-08-01T08:41:52;25.60;99.90
7496;DHT22;3789;47.064;15.482;2022-08-01T08:44:20;25.50;99.90
7496;DHT22;3789;47.064;15.482;2022-08-01T08:46:50;25.90;99.90
7496;DHT22;3789;47.064;15.482;2022-08-01T08:49:22;26.10;99.90
7496;DHT22;3789;47.064;15.482;2022-08-01T08:51:51;26.20;99.90
7496;DHT22;3789;47.064;15.482;2022-08-01T08:54:22;26.50;99.90
7496;DHT22;3789;47.064;15.482;2022-08-01T08:56:58;26.70;99.90
7496;DHT22;3789;47.064;15.482;2022-08-01T08:59:26;27.30;99.90
7496;DHT22;3789;47.064;15.482;2022-08-01T09:01:54;28.00;99.90
7496;DHT22;3789;47.064;15.482;2022-08-01T09:04:21;28.70;99.90
7496;DHT22;3789;47.064;15.482;2022-08-01T09:06:52;29.40;99.90
7496;DHT22;3789;47.064;15.482;2022-08-01T09:09:20;30.00;99.90
7496;DHT22;3789;47.064;15.482;2022-08-01T09:11:47;30.50;99.90
7496;DHT22;3789;47.064;15.482;2022-08-01T09:14:24;30.90;99.90
7496;DHT22;3789;47.064;15.482;2022-08-01T09:17:05;31.30;98.10
7496;DHT22;3789;47.064;15.482;2022-08-01T09:22:12;31.30;95.00
7496;DHT22;3789;47.064;15.482;2022-08-01T09:24:40;31.40;95.90
7496;DHT22;3789;47.064;15.482;2022-08-01T09:27:20;31.50;90.60
7496;DHT22;3789;47.064;15.482;2022-08-01T09:29:51;31.50;90.20
7496;DHT22;3789;47.064;15.482;2022-08-01T09:32:30;31.40;91.80
7496;DHT22;3789;47.064;15.482;2022-08-01T09:35:31;31.40;90.40
7496;DHT22;3789;47.064;15.482;2022-08-01T09:38:20;31.50;90.40
7496;DHT22;3789;47.064;15.482;2022-08-01T09:40:55;31.60;90.50
7496;DHT22;3789;47.064;15.482;2022-08-01T09:43:27;31.80;92.40
7496;DHT22;3789;47.064;15.482;2022-08-01T09:45:57;32.00;91.60
7496;DHT22;3789;47.064;15.482;2022-08-01T09:48:26;32.40;88.40
7496;DHT22;3789;47.064;15.482;2022-08-01T09:50:57;32.70;86.20
7496;DHT22;3789;47.064;15.482;2022-08-01T09:53:47;32.60;91.40
7496;DHT22;3789;47.064;15.482;2022-08-01T09:56:25;32.90;85.00
7496;DHT22;3789;47.064;15.482;2022-08-01T10:01:42;33.20;86.90
7496;DHT22;3789;47.064;15.482;2022-08-01T10:04:20;33.00;85.80
7496;DHT22;3789;47.064;15.482;2022-08-01T10:06:50;33.20;87.20
7496;DHT22;3789;47.064;15.482;2022-08-01T10:09:29;33.50;88.20
7496;DHT22;3789;47.064;15.482;2022-08-01T10:12:09;33.70;86.10
7496;DHT22;3789;47.064;15.482;2022-08-01T10:14:50;33.60;85.40
7496;DHT22;3789;47.064;15.482;2022-08-01T10:17:36;33.60;90.00
7496;DHT22;3789;47.064;15.482;2022-08-01T10:20:21;33.70;89.70
7496;DHT22;3789;47.064;15.482;2022-08-01T10:23:03;33.80;87.90
7496;DHT22;3789;47.064;15.482;2022-08-01T10:25:54;33.60;86.00
7496;DHT22;3789;47.064;15.482;2022-08-01T10:28:31;33.10;85.20
7496;DHT22;3789;47.064;15.482;2022-08-01T10:31:08;32.50;88.10
7496;DHT22;3789;47.064;15.482;2022-08-01T10:33:44;32.50;86.30
7496;DHT22;3789;47.064;15.482;2022-08-01T10:36:22;31.80;90.30
7496;DHT22;3789;47.064;15.482;2022-08-01T10:38:59;31.80;89.20
7496;DHT22;3789;47.064;15.482;2022-08-01T10:41:28;31.80;90.70
7496;DHT22;3789;47.064;15.482;2022-08-01T10:44:09;31.50;91.20
7496;DHT22;3789;47.064;15.482;2022-08-01T10:46:39;31.20;91.70
7496;DHT22;3789;47.064;15.482;2022-08-01T10:49:17;31.30;90.00
7496;DHT22;3789;47.064;15.482;2022-08-01T10:51:47;31.40;91.00
7496;DHT22;3789;47.064;15.482;2022-08-01T10:54:24;31.80;89.70
7496;DHT22;3789;47.064;15.482;2022-08-01T10:57:00;32.20;91.40
7496;DHT22;3789;47.064;15.482;2022-08-01T10:59:29;32.50;92.50
7496;DHT22;3789;47.064;15.482;2022-08-01T11:02:31;32.70;89.00
7496;DHT22;3789;47.064;15.482;2022-08-01T11:05:21;32.60;91.30
7496;DHT22;3789;47.064;15.482;2022-08-01T11:07:54;32.60;86.70
7496;DHT22;3789;47.064;15.482;2022-08-01T11:12:59;31.50;89.00
7496;DHT22;3789;47.064;15.482;2022-08-01T11:15:30;31.50;96.50
7496;DHT22;3789;47.064;15.482;2022-08-01T11:18:03;31.80;96.10
7496;DHT22;3789;47.064;15.482;2022-08-01T11:20:34;31.00;93.10
7496;DHT22;3789;47.064;15.482;2022-08-01T11:28:38;29.10;94.20
7496;DHT22;3789;47.064;15.482;2022-08-01T11:31:35;28.70;94.40
7496;DHT22;3789;47.064;15.482;2022-08-01T11:34:06;28.80;96.20
7496;DHT22;3789;47.064;15.482;2022-08-01T11:36:35;29.30;95.60
7496;DHT22;3789;47.064;15.482;2022-08-01T11:39:28;29.50;94.20
7496;DHT22;3789;47.064;15.482;2022-08-01T11:42:17;29.10;95.00
7496;DHT22;3789;47.064;15.482;2022-08-01T11:44:54;29.30;95.70
7496;DHT22;3789;47.064;15.482;2022-08-01T11:47:49;29.60;96.20
7496;DHT22;3789;47.064;15.482;2022-08-01T11:50:55;30.10;94.70
7496;DHT22;3789;47.064;15.482;2022-08-01T11:53:24;30.30;95.20
7496;DHT22;3789;47.064;15.482;2022-08-01T11:55:55;30.50;95.50
7496;DHT22;3789;47.064;15.482;2022-08-01T11:58:34;30.60;95.70
7496;DHT22;3789;47.064;15.482;2022-08-01T12:01:01;30.50;92.90
7496;DHT22;3789;47.064;15.482;2022-08-01T12:03:34;30.40;91.90
7496;DHT22;3789;47.064;15.482;2022-08-01T12:06:05;30.20;92.00
7496;DHT22;3789;47.064;15.482;2022-08-01T12:08:38;29.90;92.90
7496;DHT22;3789;47.064;15.482;2022-08-01T12:11:08;29.90;93.60
7496;DHT22;3789;47.064;15.482;2022-08-01T12:13:43;30.00;94.60
7496;DHT22;3789;47.064;15.482;2022-08-01T12:16:11;30.20;92.60
7496;DHT22;3789;47.064;15.482;2022-08-01T12:18:57;30.10;92.00
7496;DHT22;3789;47.064;15.482;2022-08-01T12:21:30;29.90;93.10
7496;DHT22;3789;47.064;15.482;2022-08-01T12:24:04;30.20;93.40
7496;DHT22;3789;47.064;15.482;2022-08-01T12:26:43;30.30;93.20
7496;DHT22;3789;47.064;15.482;2022-08-01T12:29:49;30.50;94.40
7496;DHT22;3789;47.064;15.482;2022-08-01T12:35:18;31.00;95.00
7496;DHT22;3789;47.064;15.482;2022-08-01T12:38:21;31.20;95.30
7496;DHT22;3789;47.064;15.482;2022-08-01T12:40:50;31.30;92.70
7496;DHT22;3789;47.064;15.482;2022-08-01T12:43:23;31.30;93.70
7496;DHT22;3789;47.064;15.482;2022-08-01T12:45:57;31.40;93.50
7496;DHT22;3789;47.064;15.482;2022-08-01T12:48:27;31.60;92.80
7496;DHT22;3789;47.064;15.482;2022-08-01T12:50:58;31.70;93.00
7496;DHT22;3789;47.064;15.482;2022-08-01T12:53:36;31.60;90.10
7496;DHT22;3789;47.064;15.482;2022-08-01T12:56:10;31.70;92.50
7496;DHT22;3789;47.064;15.482;2022-08-01T12:58:50;31.80;92.20
7496;DHT22;3789;47.064;15.482;2022-08-01T13:01:34;31.90;92.80
7496;DHT22;3789;47.064;15.482;2022-08-01T13:04:04;32.10;91.50
7496;DHT22;3789;47.064;15.482;2022-08-01T13:06:35;32.10;91.20
7496;DHT22;3789;47.064;15.482;2022-08-01T13:09:08;31.90;92.80
7496;DHT22;3789;47.064;15.482;2022-08-01T13:11:42;31.50;88.10
7496;DHT22;3789;47.064;15.482;2022-08-01T13:14:31;31.30;91.30
7496;DHT22;3789;47.064;15.482;2022-08-01T13:17:08;31.60;92.20
7496;DHT22;3789;47.064;15.482;2022-08-01T13:19:47;31.70;91.80
7496;DHT22;3789;47.064;15.482;2022-08-01T13:22:37;31.90;92.00
7496;DHT22;3789;47.064;15.482;2022-08-01T13:25:17;31.90;92.20
7496;DHT22;3789;47.064;15.482;2022-08-01T13:28:22;31.80;91.50
7496;DHT22;3789;47.064;15.482;2022-08-01T13:30:59;31.60;90.70
7496;DHT22;3789;47.064;15.482;2022-08-01T13:33:47;31.40;93.70
7496;DHT22;3789;47.064;15.482;2022-08-01T13:36:28;31.40;94.40
7496;DHT22;3789;47.064;15.482;2022-08-01T13:38:59;31.20;91.20
7496;DHT22;3789;47.064;15.482;2022-08-01T13:41:47;31.30;90.70
7496;DHT22;3789;47.064;15.482;2022-08-01T13:44:16;31.30;90.40
7496;DHT22;3789;47.064;15.482;2022-08-01T13:46:45;31.40;90.20
7496;DHT22;3789;47.064;15.482;2022-08-01T13:49:18;31.30;90.10
7496;DHT22;3789;47.064;15.482;2022-08-01T13:51:50;31.40;91.20
7496;DHT22;3789;47.064;15.482;2022-08-01T13:54:19;31.40;90.20
7496;DHT22;3789;47.064;15.482;2022-08-01T13:56:47;31.40;90.20
7496;DHT22;3789;47.064;15.482;2022-08-01T13:59:15;31.50;90.50
7496;DHT22;3789;47.064;15.482;2022-08-01T14:01:43;31.60;91.10
7496;DHT22;3789;47.064;15.482;2022-08-01T14:04:15;31.70;90.80
7496;DHT22;3789;47.064;15.482;2022-08-01T14:06:43;31.50;90.80
7496;DHT22;3789;47.064;15.482;2022-08-01T14:09:12;31.30;90.20
7496;DHT22;3789;47.064;15.482;2022-08-01T14:11:44;31.10;87.70
7496;DHT22;3789;47.064;15.482;2022-08-01T14:14:13;31.10;90.80
7496;DHT22;3789;47.064;15.482;2022-08-01T14:16:42;31.20;91.60
7496;DHT22;3789;47.064;15.482;2022-08-01T14:19:13;31.30;91.40
7496;DHT22;3789;47.064;15.482;2022-08-01T14:21:46;31.40;90.70
7496;DHT22;3789;47.064;15.482;2022-08-01T14:24:15;31.40;89.70
7496;DHT22;3789;47.064;15.482;2022-08-01T14:26:46;31.60;91.70
7496;DHT22;3789;47.064;15.482;2022-08-01T14:29:17;31.70;91.60
7496;DHT22;3789;47.064;15.482;2022-08-01T14:31:44;31.50;89.20
7496;DHT22;3789;47.064;15.482;2022-08-01T14:34:17;31.40;91.70
7496;DHT22;3789;47.064;15.482;2022-08-01T14:36:46;31.30;91.30
7496;DHT22;3789;47.064;15.482;2022-08-01T14:39:17;31.40;91.20
7496;DHT22;3789;47.064;15.482;2022-08-01T14:41:48;31.30;90.10
7496;DHT22;3789;47.064;15.482;2022-08-01T14:44:16;31.10;91.70
7496;DHT22;3789;47.064;15.482;2022-08-01T14:46:46;30.90;91.60
7496;DHT22;3789;47.064;15.482;2022-08-01T14:49:25;30.70;89.30
7496;DHT22;3789;47.064;15.482;2022-08-01T14:52:04;30.20;88.40
7496;DHT22;3789;47.064;15.482;2022-08-01T14:54:35;30.10;90.60
7496;DHT22;3789;47.064;15.482;2022-08-01T14:57:04;29.90;91.50
7496;DHT22;3789;47.064;15.482;2022-08-01T14:59:33;29.80;91.20
7496;DHT22;3789;47.064;15.482;2022-08-01T15:02:03;29.40;92.80
7496;DHT22;3789;47.064;15.482;2022-08-01T15:04:40;29.30;91.90
7496;DHT22;3789;47.064;15.482;2022-08-01T15:07:08;29.10;92.90
7496;DHT22;3789;47.064;15.482;2022-08-01T15:09:44;28.90;93.30
7496;DHT22;3789;47.064;15.482;2022-08-01T15:12:17;28.60;94.50
7496;DHT22;3789;47.064;15.482;2022-08-01T15:14:46;28.20;94.00
7496;DHT22;3789;47.064;15.482;2022-08-01T15:17:26;27.80;95.00
7496;DHT22;3789;47.064;15.482;2022-08-01T15:20:06;27.60;95.60
7496;DHT22;3789;47.064;15.482;2022-08-01T15:22:37;27.30;96.40
7496;DHT22;3789;47.064;15.482;2022-08-01T15:25:14;27.20;96.50
7496;DHT22;3789;47.064;15.482;2022-08-01T15:27:44;27.10;97.60
7496;DHT22;3789;47.064;15.482;2022-08-01T15:30:15;26.90;97.90
7496;DHT22;3789;47.064;15.482;2022-08-01T15:32:55;26.80;98.50
7496;DHT22;3789;47.064;15.482;2022-08-01T15:35:24;26.80;98.50
7496;DHT22;3789;47.064;15.482;2022-08-01T15:37:54;26.80;99.10
7496;DHT22;3789;47.064;15.482;2022-08-01T15:40:22;26.80;98.80
7496;DHT22;3789;47.064;15.482;2022-08-01T15:42:50;26.70;99.10
7496;DHT22;3789;47.064;15.482;2022-08-01T15:45:22;26.80;98.90
7496;DHT22;3789;47.064;15.482;2022-08-01T15:48:11;26.80;98.70
7496;DHT22;3789;47.064;15.482;2022-08-01T15:50:39;26.80;98.90
7496;DHT22;3789;47.064;15.482;2022-08-01T15:53:07;26.70;99.10
7496;DHT22;3789;47.064;15.482;2022-08-01T15:55:38;26.70;98.50
7496;DHT22;3789;47.064;15.482;2022-08-01T15:58:18;26.70;97.60
7496;DHT22;3789;47.064;15.482;2022-08-01T16:00:47;26.70;97.10
7496;DHT22;3789;47.064;15.482;2022-08-01T16:03:17;26.70;98.10
7496;DHT22;3789;47.064;15.482;2022-08-01T16:05:47;26.80;97.90
7496;DHT22;3789;47.064;15.482;2022-08-01T16:08:17;26.90;98.50
7496;DHT22;3789;47.064;15.482;2022-08-01T16:10:46;26.90;99.10
7496;DHT22;3789;47.064;15.482;2022-08-01T16:13:16;26.90;98.70
7496;DHT22;3789;47.064;15.482;2022-08-01T16:15:46;26.90;99.00
7496;DHT22;3789;47.064;15.482;2022-08-01T16:18:14;26.90;98.80
7496;DHT22;3789;47.064;15.482;2022-08-01T16:20:44;26.90;98.10
7496;DHT22;3789;47.064;15.482;2022-08-01T16:23:16;26.90;98.60
7496;DHT22;3789;47.064;15.482;2022-08-01T16:25:46;26.90;98.00
7496;DHT22;3789;47.064;15.482;2022-08-01T16:28:14;27.00;98.60
7496;DHT22;3789;47.064;15.482;2022-08-01T16:30:43;26.90;99.30
7496;DHT22;3789;47.064;15.482;2022-08-01T16:33:31;26.90;98.70
7496;DHT22;3789;47.064;15.482;2022-08-01T16:36:20;26.90;98.90
7496;DHT22;3789;47.064;15.482;2022-08-01T16:38:52;27.00;99.20
7496;DHT22;3789;47.064;15.482;2022-08-01T16:41:27;27.00;99.00
7496;DHT22;3789;47.064;15.482;2022-08-01T16:43:58;27.10;99.10
7496;DHT22;3789;47.064;15.482;2022-08-01T16:46:27;27.10;98.30
7496;DHT22;3789;47.064;15.482;2022-08-01T16:48:54;26.90;98.10